createdAt,value
2018-08-21T00:00:50.711Z,67.40
2018-08-21T00:03:18.319Z,68.67
2018-08-21T00:05:46.248Z,68.83
2018-08-21T00:08:13.776Z,67.00
2018-08-21T00:10:42.543Z,73.27
2018-08-21T00:13:11.159Z,91.15
2018-08-21T00:15:39.304Z,92.70
2018-08-21T00:18:07.434Z,78.17
2018-08-21T00:20:35.354Z,72.43
2018-08-21T00:23:04.046Z,78.97
2018-08-21T00:25:32.034Z,77.62
2018-08-21T00:27:59.709Z,97.67
2018-08-21T00:30:33.457Z,82.60
2018-08-21T00:33:02.257Z,96.20
2018-08-21T00:35:31.968Z,74.00
2018-08-21T00:37:59.516Z,68.02
2018-08-21T00:40:27.673Z,67.45
2018-08-21T00:42:55.673Z,77.00
2018-08-21T00:45:23.589Z,97.92
2018-08-21T00:47:51.507Z,77.58
2018-08-21T00:50:19.128Z,69.03
2018-08-21T00:52:46.960Z,82.75
2018-08-21T00:55:15.037Z,79.72
2018-08-21T00:57:43.180Z,90.37
2018-08-21T01:00:10.692Z,80.10
2018-08-21T01:02:38.202Z,78.57
2018-08-21T01:05:07.196Z,84.67
2018-08-21T01:07:35.764Z,70.83
2018-08-21T01:10:03.602Z,71.80
2018-08-21T01:12:31.416Z,72.05
2018-08-21T01:14:59.892Z,80.95
2018-08-21T01:17:27.359Z,76.80
2018-08-21T01:19:55.320Z,80.07
2018-08-21T01:22:23.905Z,69.10
2018-08-21T01:24:51.507Z,82.67
2018-08-21T01:27:19.216Z,75.52
2018-08-21T01:29:47.211Z,72.30
2018-08-21T01:32:15.302Z,73.87
2018-08-21T01:34:43.777Z,61.53
2018-08-21T01:37:11.616Z,78.10
2018-08-21T01:39:39.742Z,70.15
2018-08-21T01:42:07.366Z,67.30
2018-08-21T01:44:35.047Z,61.55
2018-08-21T01:47:08.042Z,71.12
2018-08-21T01:49:36.247Z,62.53
2018-08-21T01:52:04.559Z,67.00
2018-08-21T01:54:32.836Z,66.33
2018-08-21T01:57:01.311Z,76.15
2018-08-21T01:59:29.064Z,60.83
2018-08-21T02:01:57.080Z,65.80
2018-08-21T02:04:24.727Z,66.28
2018-08-21T02:06:52.577Z,78.42
2018-08-21T02:09:20.336Z,56.55
2018-08-21T02:11:48.258Z,60.05
2018-08-21T02:14:16.177Z,60.90
2018-08-21T02:16:44.303Z,59.30
2018-08-21T02:19:12.220Z,72.22
2018-08-21T02:21:39.843Z,64.97
2018-08-21T02:24:08.301Z,79.10
2018-08-21T02:26:36.217Z,51.37
2018-08-21T02:29:04.003Z,60.23
2018-08-21T02:31:31.487Z,52.20
2018-08-21T02:33:59.537Z,57.88
2018-08-21T02:36:27.137Z,59.90
2018-08-21T02:38:54.676Z,48.83
2018-08-21T02:41:23.077Z,47.93
2018-08-21T02:43:50.829Z,52.45
2018-08-21T02:46:20.510Z,46.35
2018-08-21T02:48:49.700Z,48.05
2018-08-21T02:51:22.476Z,53.65
2018-08-21T02:53:50.237Z,52.00
2018-08-21T02:56:18.419Z,61.83
2018-08-21T02:58:46.277Z,42.15
2018-08-21T03:01:15.681Z,48.80
2018-08-21T03:03:48.505Z,47.33
2018-08-21T03:06:16.613Z,54.30
2018-08-21T03:08:44.260Z,59.10
2018-08-21T03:11:12.383Z,54.23
2018-08-21T03:13:40.148Z,53.73
2018-08-21T03:16:08.014Z,50.48
2018-08-21T03:18:35.788Z,76.00
2018-08-21T03:21:03.444Z,58.37
2018-08-21T03:23:31.140Z,58.35
2018-08-21T03:25:58.903Z,52.00
2018-08-21T03:28:26.949Z,57.93
2018-08-21T03:30:55.112Z,56.88
2018-08-21T03:33:22.557Z,42.13
2018-08-21T03:35:50.680Z,66.10
2018-08-21T03:38:18.617Z,55.77
2018-08-21T03:40:46.737Z,62.88
2018-08-21T03:43:14.652Z,53.73
2018-08-21T03:45:42.519Z,50.30
2018-08-21T03:48:10.328Z,61.85
2018-08-21T03:50:37.811Z,69.80
2018-08-21T03:53:06.032Z,59.50
2018-08-21T03:55:33.895Z,72.70
2018-08-21T03:58:02.885Z,66.28
2018-08-21T04:00:30.616Z,69.00
2018-08-21T04:02:58.328Z,63.98
2018-08-21T04:05:25.783Z,51.90
2018-08-21T04:07:53.246Z,58.33
2018-08-21T04:10:21.789Z,60.12
2018-08-21T04:12:49.607Z,53.65
2018-08-21T04:15:17.396Z,65.73
2018-08-21T04:17:45.925Z,49.90
2018-08-21T04:20:14.323Z,57.07
2018-08-21T04:22:42.399Z,56.65
2018-08-21T04:25:11.317Z,75.45
2018-08-21T04:27:39.859Z,51.83
2018-08-21T04:30:08.391Z,56.02
2018-08-21T04:32:36.342Z,65.03
2018-08-21T04:35:04.084Z,64.37
2018-08-21T04:37:32.136Z,52.60
2018-08-21T04:40:00.160Z,53.52
2018-08-21T04:42:28.241Z,62.55
2018-08-21T04:44:56.515Z,49.33
2018-08-21T04:47:34.740Z,54.90
2018-08-21T04:50:03.867Z,69.25
2018-08-21T04:52:32.273Z,65.78
2018-08-21T04:55:00.956Z,56.18
2018-08-21T04:57:28.965Z,55.55
2018-08-21T04:59:57.857Z,63.17
2018-08-21T05:02:32.016Z,67.87
2018-08-21T05:04:59.603Z,63.20
2018-08-21T05:07:33.643Z,63.55
2018-08-21T05:10:01.957Z,58.52
2018-08-21T05:12:30.285Z,58.78
2018-08-21T05:14:58.823Z,63.33
2018-08-21T05:17:26.687Z,63.70
2018-08-21T05:19:54.449Z,62.23
2018-08-21T05:22:23.340Z,76.60
2018-08-21T05:24:51.049Z,73.57
2018-08-21T05:27:18.701Z,79.63
2018-08-21T05:29:46.144Z,65.17
2018-08-21T05:32:14.092Z,68.50
2018-08-21T05:34:42.185Z,74.07
2018-08-21T05:37:09.979Z,71.40
2018-08-21T05:39:37.692Z,59.30
2018-08-21T05:42:05.783Z,66.85
2018-08-21T05:44:39.467Z,65.87
2018-08-21T05:47:07.082Z,68.62
2018-08-21T05:49:34.580Z,65.83
2018-08-21T05:52:02.616Z,80.42
2018-08-21T05:54:30.529Z,62.75
2018-08-21T05:56:58.627Z,74.77
2018-08-21T05:59:26.249Z,73.02
2018-08-21T06:01:53.791Z,81.45
2018-08-21T06:04:21.299Z,71.72
2018-08-21T06:06:49.385Z,79.40
2018-08-21T06:09:17.005Z,63.83
2018-08-21T06:11:44.513Z,70.87
2018-08-21T06:14:12.141Z,78.07
2018-08-21T06:16:54.604Z,66.85
2018-08-21T06:19:23.481Z,68.22
2018-08-21T06:21:51.311Z,76.77
2018-08-21T06:24:19.294Z,70.55
2018-08-21T06:26:47.578Z,72.03
2018-08-21T06:29:15.231Z,72.40
2018-08-21T06:31:43.493Z,69.45
2018-08-21T06:34:11.668Z,67.80
2018-08-21T06:36:40.069Z,75.85
2018-08-21T06:39:13.337Z,80.87
2018-08-21T06:41:42.835Z,77.13
2018-08-21T06:44:13.572Z,81.80
2018-08-21T06:46:45.150Z,69.40
2018-08-21T06:49:14.517Z,90.85
2018-08-21T06:51:43.145Z,79.50
2018-08-21T06:54:10.865Z,93.63
2018-08-21T06:56:38.539Z,80.95
2018-08-21T06:59:13.128Z,85.23
2018-08-21T07:01:42.139Z,81.67
2018-08-21T07:04:10.029Z,94.05
2018-08-21T07:06:37.526Z,103.47
2018-08-21T07:09:06.435Z,85.17
2018-08-21T07:11:33.988Z,100.20
2018-08-21T07:14:01.475Z,117.00
2018-08-21T07:16:28.955Z,128.85
2018-08-21T07:18:56.777Z,111.67
2018-08-21T07:21:29.448Z,108.90
2018-08-21T07:23:56.981Z,126.57
2018-08-21T07:26:25.142Z,124.15
2018-08-21T07:28:53.050Z,124.45
2018-08-21T07:31:20.559Z,136.33
2018-08-21T07:33:48.532Z,129.72
2018-08-21T07:36:16.707Z,128.02
2018-08-21T07:38:47.984Z,122.57
2018-08-21T07:41:15.896Z,102.72
2018-08-21T07:43:44.719Z,106.35
2018-08-21T07:46:13.300Z,144.90
2018-08-21T07:48:50.940Z,110.10
2018-08-21T07:51:18.673Z,131.43
2018-08-21T07:53:48.304Z,137.60
2018-08-21T07:56:16.548Z,132.65
2018-08-21T07:58:50.616Z,129.00
2018-08-21T08:01:18.400Z,131.63
2018-08-21T08:03:46.501Z,128.32
2018-08-21T08:06:18.669Z,128.85
2018-08-21T08:08:50.623Z,141.00
2018-08-21T08:11:18.609Z,142.98
2018-08-21T08:13:47.523Z,132.63
2018-08-21T08:16:15.459Z,141.32
2018-08-21T08:18:47.521Z,152.95
2018-08-21T08:21:20.861Z,139.40
2018-08-21T08:23:50.985Z,139.03
2018-08-21T08:26:19.328Z,160.75
2018-08-21T08:28:51.282Z,131.78
2018-08-21T08:31:19.719Z,147.67
2018-08-21T08:33:48.054Z,141.35
2018-08-21T08:36:15.912Z,120.08
2018-08-21T08:38:44.289Z,150.82
2018-08-21T08:41:16.191Z,131.47
2018-08-21T08:43:43.907Z,138.97
2018-08-21T08:46:21.744Z,120.17
2018-08-21T08:48:58.959Z,150.15
2018-08-21T08:51:36.694Z,142.75
2018-08-21T08:54:16.322Z,134.40
2018-08-21T08:56:56.180Z,135.07
2018-08-21T08:59:33.907Z,125.00
2018-08-21T09:02:06.823Z,143.10
2018-08-21T09:04:34.637Z,141.67
2018-08-21T09:07:02.776Z,142.20
2018-08-21T09:09:31.089Z,114.70
2018-08-21T09:12:00.037Z,126.20
2018-08-21T09:14:33.272Z,145.57
2018-08-21T09:17:10.534Z,180.18
2018-08-21T09:19:42.797Z,134.78
2018-08-21T09:22:11.515Z,120.25
2018-08-21T09:24:39.209Z,128.10
2018-08-21T09:27:06.909Z,152.60
2018-08-21T09:29:34.938Z,139.65
2018-08-21T09:32:03.009Z,142.47
2018-08-21T09:34:31.467Z,183.10
2018-08-21T09:37:03.372Z,235.70
2018-08-21T09:39:31.556Z,207.57
2018-08-21T09:42:04.565Z,219.18
2018-08-21T09:44:32.081Z,185.48
2018-08-21T09:46:59.922Z,177.95
2018-08-21T09:49:27.393Z,200.65
2018-08-21T09:51:55.484Z,235.00
2018-08-21T09:54:23.316Z,256.80
2018-08-21T09:56:51.006Z,236.60
2018-08-21T09:59:20.915Z,250.67
2018-08-21T10:02:52.537Z,234.07
2018-08-21T10:05:25.472Z,238.43
2018-08-21T10:07:55.468Z,240.25
2018-08-21T10:10:23.448Z,254.23
2018-08-21T10:12:52.224Z,248.55
2018-08-21T10:15:19.777Z,192.40
2018-08-21T10:17:51.555Z,264.95
2018-08-21T10:20:19.977Z,221.83
2018-08-21T10:22:47.419Z,240.27
2018-08-21T10:25:14.931Z,265.05
2018-08-21T10:27:42.728Z,293.75
2018-08-21T10:30:11.027Z,239.03
2018-08-21T10:32:39.220Z,230.60
2018-08-21T10:35:06.804Z,262.45
2018-08-21T10:37:39.714Z,264.17
2018-08-21T10:40:07.987Z,293.67
2018-08-21T10:42:36.049Z,327.65
2018-08-21T10:45:04.841Z,340.05
2018-08-21T10:47:32.371Z,261.70
2018-08-21T10:49:59.952Z,276.50
2018-08-21T10:52:27.911Z,231.47
2018-08-21T10:54:55.388Z,259.70
2018-08-21T10:57:23.019Z,269.57
2018-08-21T10:59:50.917Z,251.37
2018-08-21T11:02:53.855Z,283.97
2018-08-21T11:05:21.733Z,274.77
2018-08-21T11:07:58.760Z,227.20
2018-08-21T11:10:27.792Z,273.07
2018-08-21T11:12:55.685Z,303.98
2018-08-21T11:15:23.484Z,294.60
2018-08-21T11:17:50.981Z,388.15
2018-08-21T11:20:24.339Z,266.57
2018-08-21T11:22:53.709Z,310.80
2018-08-21T11:25:21.537Z,305.73
2018-08-21T11:27:49.368Z,348.60
2018-08-21T11:30:17.138Z,294.95
2018-08-21T11:32:45.472Z,283.13
2018-08-21T11:35:13.397Z,321.53
2018-08-21T11:37:41.182Z,345.05
2018-08-21T11:40:10.340Z,345.25
2018-08-21T11:42:37.865Z,339.03
2018-08-21T11:45:05.360Z,338.43
2018-08-21T11:47:32.917Z,338.95
2018-08-21T11:50:00.375Z,373.70
2018-08-21T11:52:27.836Z,355.10
2018-08-21T11:54:56.221Z,367.73
2018-08-21T11:57:24.288Z,348.10
2018-08-21T11:59:51.810Z,326.55
2018-08-21T12:02:19.620Z,356.10
2018-08-21T12:04:47.479Z,351.73
2018-08-21T12:07:15.276Z,312.38
2018-08-21T12:09:43.336Z,337.27
2018-08-21T12:12:10.881Z,380.40
2018-08-21T12:14:39.016Z,336.10
2018-08-21T12:17:06.688Z,362.90
2018-08-21T12:19:34.479Z,345.10
2018-08-21T12:22:02.046Z,327.62
2018-08-21T12:24:29.524Z,355.83
2018-08-21T12:26:57.188Z,381.02
2018-08-21T12:29:25.044Z,347.12
2018-08-21T12:31:53.099Z,362.08
2018-08-21T12:34:20.576Z,381.87
2018-08-21T12:36:48.104Z,404.37
2018-08-21T12:39:15.889Z,408.70
2018-08-21T12:41:44.123Z,388.52
2018-08-21T12:44:12.232Z,373.48
2018-08-21T12:46:39.655Z,367.07
2018-08-21T12:49:07.927Z,409.50
2018-08-21T12:51:35.471Z,402.83
2018-08-21T12:54:03.715Z,367.37
2018-08-21T12:56:31.609Z,392.55
2018-08-21T12:58:59.128Z,353.27
2018-08-21T13:01:27.613Z,368.35
2018-08-21T13:03:55.429Z,378.85
2018-08-21T13:06:22.944Z,372.73
2018-08-21T13:08:50.613Z,384.07
2018-08-21T13:11:18.473Z,345.95
2018-08-21T13:13:46.049Z,350.90
2018-08-21T13:16:13.511Z,378.20
2018-08-21T13:18:41.260Z,354.23
2018-08-21T13:21:09.114Z,375.22
2018-08-21T13:23:36.829Z,425.55
2018-08-21T13:26:04.645Z,340.62
2018-08-21T13:28:32.396Z,385.77
2018-08-21T13:31:00.552Z,352.83
2018-08-21T13:33:28.353Z,386.10
2018-08-21T13:35:55.915Z,459.97
2018-08-21T13:38:23.637Z,360.27
2018-08-21T13:40:51.332Z,391.68
2018-08-21T13:43:19.204Z,395.18
2018-08-21T13:45:46.903Z,374.77
2018-08-21T13:48:14.464Z,370.93
2018-08-21T13:50:42.228Z,356.47
2018-08-21T13:53:09.711Z,414.87
2018-08-21T13:55:37.558Z,392.23
2018-08-21T13:58:06.105Z,384.40
2018-08-21T14:00:34.092Z,405.25
2018-08-21T14:03:01.832Z,373.82
2018-08-21T14:05:29.357Z,356.25
2018-08-21T14:07:57.166Z,410.78
2018-08-21T14:10:24.637Z,389.27
2018-08-21T14:12:52.430Z,372.67
2018-08-21T14:15:20.212Z,396.60
2018-08-21T14:17:47.756Z,381.53
2018-08-21T14:20:15.323Z,394.20
2018-08-21T14:22:42.755Z,330.50
2018-08-21T14:25:10.275Z,392.20
2018-08-21T14:27:38.057Z,431.00
2018-08-21T14:30:05.576Z,343.15
2018-08-21T14:32:33.165Z,394.15
2018-08-21T14:35:00.926Z,417.73
2018-08-21T14:37:28.392Z,372.90
2018-08-21T14:39:56.084Z,440.47
2018-08-21T14:42:23.570Z,420.38
2018-08-21T14:44:51.257Z,412.40
2018-08-21T14:47:18.777Z,393.17
2018-08-21T14:49:46.292Z,367.60
2018-08-21T14:52:13.783Z,408.07
2018-08-21T14:54:41.494Z,352.82
2018-08-21T14:57:09.103Z,393.23
2018-08-21T14:59:36.856Z,423.55
2018-08-21T15:02:04.653Z,428.17
2018-08-21T15:04:32.116Z,359.40
2018-08-21T15:07:00.104Z,400.62
2018-08-21T15:09:27.647Z,400.98
2018-08-21T15:11:55.311Z,417.83
2018-08-21T15:14:22.855Z,428.52
2018-08-21T15:16:50.595Z,413.40
2018-08-21T15:19:18.380Z,399.83
2018-08-21T15:21:46.121Z,383.68
2018-08-21T15:24:13.875Z,425.62
2018-08-21T15:26:42.161Z,452.07
2018-08-21T15:29:09.919Z,468.17
2018-08-21T15:31:37.342Z,449.08
2018-08-21T15:34:05.454Z,443.85
2018-08-21T15:36:33.013Z,424.45
2018-08-21T15:39:00.918Z,428.25
2018-08-21T15:41:28.328Z,424.50
2018-08-21T15:43:56.026Z,442.95
2018-08-21T15:46:23.588Z,468.17
2018-08-21T15:48:51.337Z,422.23
2018-08-21T15:51:18.953Z,415.60
2018-08-21T15:53:46.443Z,389.68
2018-08-21T15:56:14.219Z,464.15
2018-08-21T15:58:41.951Z,438.72
2018-08-21T16:01:09.789Z,510.15
2018-08-21T16:03:37.345Z,419.30
2018-08-21T16:06:04.818Z,432.08
2018-08-21T16:08:33.009Z,439.10
2018-08-21T16:11:01.135Z,459.80
2018-08-21T16:13:28.843Z,456.95
2018-08-21T16:15:56.632Z,417.45
2018-08-21T16:18:24.456Z,374.10
2018-08-21T16:20:52.268Z,415.23
2018-08-21T16:23:20.077Z,451.30
2018-08-21T16:25:47.912Z,486.83
2018-08-21T16:28:15.440Z,468.40
2018-08-21T16:30:43.789Z,459.05
2018-08-21T16:33:11.312Z,430.55
2018-08-21T16:35:39.368Z,413.37
2018-08-21T16:38:07.146Z,465.17
2018-08-21T16:40:34.766Z,424.55
2018-08-21T16:43:03.149Z,419.77
2018-08-21T16:45:31.248Z,402.20
2018-08-21T16:47:59.113Z,406.50
2018-08-21T16:50:26.668Z,393.80
2018-08-21T16:52:54.516Z,387.60
2018-08-21T16:55:22.353Z,423.15
2018-08-21T16:57:49.869Z,437.60
2018-08-21T17:00:17.834Z,395.10
2018-08-21T17:02:51.239Z,353.18
2018-08-21T17:05:18.709Z,357.67
2018-08-21T17:07:46.200Z,385.32
2018-08-21T17:10:13.930Z,368.57
2018-08-21T17:12:41.992Z,307.83
2018-08-21T17:15:10.071Z,322.67
2018-08-21T17:17:37.540Z,310.38
2018-08-21T17:20:05.395Z,311.50
2018-08-21T17:22:32.937Z,300.18
2018-08-21T17:25:01.121Z,279.60
2018-08-21T17:27:28.748Z,342.23
2018-08-21T17:29:56.401Z,392.05
2018-08-21T17:32:25.163Z,314.02
2018-08-21T17:34:52.722Z,328.70
2018-08-21T17:37:20.769Z,297.72
2018-08-21T17:39:48.564Z,326.23
2018-08-21T17:42:16.036Z,265.35
2018-08-21T17:44:43.532Z,267.15
2018-08-21T17:47:11.005Z,232.10
2018-08-21T17:49:39.216Z,249.63
2018-08-21T17:52:07.045Z,247.55
2018-08-21T17:54:35.333Z,193.90
2018-08-21T17:57:03.417Z,252.13
2018-08-21T17:59:31.629Z,206.77
2018-08-21T18:01:59.561Z,248.43
2018-08-21T18:04:27.210Z,231.93
2018-08-21T18:06:54.721Z,245.97
2018-08-21T18:09:22.569Z,201.30
2018-08-21T18:11:50.613Z,191.50
2018-08-21T18:14:18.496Z,233.30
2018-08-21T18:16:46.224Z,235.63
2018-08-21T18:19:13.912Z,182.57
2018-08-21T18:21:41.525Z,191.63
2018-08-21T18:24:09.047Z,149.27
2018-08-21T18:26:38.002Z,198.10
2018-08-21T18:29:06.652Z,195.75
2018-08-21T18:31:34.592Z,157.37
2018-08-21T18:34:02.153Z,171.50
2018-08-21T18:36:30.436Z,151.55
2018-08-21T18:38:58.283Z,199.27
2018-08-21T18:41:26.209Z,152.63
2018-08-21T18:43:54.508Z,145.57
2018-08-21T18:46:22.377Z,165.50
2018-08-21T18:48:50.198Z,165.03
2018-08-21T18:51:18.420Z,148.73
2018-08-21T18:53:46.201Z,152.60
2018-08-21T18:56:14.048Z,163.22
2018-08-21T18:58:41.929Z,124.10
2018-08-21T19:01:09.493Z,160.03
2018-08-21T19:03:37.497Z,168.85
2018-08-21T19:06:05.069Z,153.05
2018-08-21T19:08:33.283Z,144.57
2018-08-21T19:11:00.847Z,140.07
2018-08-21T19:13:28.584Z,117.93
2018-08-21T19:15:56.070Z,130.27
2018-08-21T19:18:23.846Z,134.70
2018-08-21T19:20:51.375Z,108.78
2018-08-21T19:23:19.176Z,120.47
2018-08-21T19:25:46.619Z,106.27
2018-08-21T19:28:14.123Z,111.40
2018-08-21T19:30:41.672Z,120.50
2018-08-21T19:33:09.225Z,109.07
2018-08-21T19:35:37.085Z,100.27
2018-08-21T19:38:04.593Z,88.93
2018-08-21T19:40:32.141Z,106.35
2018-08-21T19:42:59.716Z,107.22
2018-08-21T19:45:27.809Z,104.23
2018-08-21T19:47:55.622Z,95.45
2018-08-21T19:50:23.117Z,96.47
2018-08-21T19:52:50.827Z,92.30
2018-08-21T19:55:18.307Z,104.37
2018-08-21T19:57:46.016Z,118.85
2018-08-21T20:00:13.800Z,82.17
2018-08-21T20:02:41.859Z,115.15
2018-08-21T20:05:09.445Z,111.22
2018-08-21T20:07:37.179Z,102.07
2018-08-21T20:10:04.830Z,110.28
2018-08-21T20:12:32.593Z,95.32
2018-08-21T20:15:00.519Z,100.97
2018-08-21T20:17:28.021Z,118.37
2018-08-21T20:19:55.848Z,102.15
2018-08-21T20:22:23.871Z,112.80
2018-08-21T20:24:51.392Z,123.95
2018-08-21T20:27:19.121Z,94.67
2018-08-21T20:29:46.611Z,99.13
2018-08-21T20:32:14.136Z,97.85
2018-08-21T20:34:41.991Z,97.77
2018-08-21T20:37:10.188Z,80.25
2018-08-21T20:39:37.737Z,87.27
2018-08-21T20:42:05.597Z,111.52
2018-08-21T20:44:33.033Z,93.92
2018-08-21T20:47:00.558Z,107.45
2018-08-21T20:49:28.031Z,73.50
2018-08-21T20:51:55.633Z,87.12
2018-08-21T20:54:23.244Z,93.52
2018-08-21T20:56:51.518Z,108.37
2018-08-21T20:59:19.241Z,97.82
2018-08-21T21:01:47.148Z,96.42
2018-08-21T21:04:14.921Z,84.92
2018-08-21T21:06:42.731Z,102.80
2018-08-21T21:09:12.896Z,78.15
2018-08-21T21:11:40.421Z,102.47
2018-08-21T21:14:13.544Z,91.70
2018-08-21T21:16:46.994Z,98.90
2018-08-21T21:19:20.179Z,98.67
2018-08-21T21:21:53.307Z,90.80
2018-08-21T21:24:24.187Z,91.25
2018-08-21T21:26:52.036Z,96.67
2018-08-21T21:29:20.070Z,91.82
2018-08-21T21:31:48.450Z,67.67
2018-08-21T21:34:16.027Z,82.70
2018-08-21T21:36:44.634Z,88.80
2018-08-21T21:39:13.979Z,89.10
2018-08-21T21:41:41.552Z,104.25
2018-08-21T21:44:09.919Z,111.12
2018-08-21T21:46:37.867Z,82.97
2018-08-21T21:49:06.280Z,88.30
2018-08-21T21:51:34.839Z,95.17
2018-08-21T21:54:03.223Z,73.17
2018-08-21T21:56:31.550Z,91.82
2018-08-21T21:58:58.990Z,62.83
2018-08-21T22:01:27.034Z,91.10
2018-08-21T22:03:55.139Z,72.58
2018-08-21T22:06:22.914Z,103.65
2018-08-21T22:08:50.374Z,80.70
2018-08-21T22:11:18.494Z,91.42
2018-08-21T22:13:46.061Z,87.47
2018-08-21T22:16:13.926Z,88.42
2018-08-21T22:18:41.698Z,92.60
2018-08-21T22:21:09.517Z,102.92
2018-08-21T22:23:36.996Z,98.80
2018-08-21T22:26:04.786Z,74.50
2018-08-21T22:28:32.301Z,79.42
2018-08-21T22:31:00.242Z,70.10
2018-08-21T22:33:28.279Z,88.60
2018-08-21T22:35:55.994Z,68.83
2018-08-21T22:38:23.913Z,70.12
2018-08-21T22:40:51.961Z,91.80
2018-08-21T22:43:19.900Z,72.40
2018-08-21T22:45:47.924Z,78.83
2018-08-21T22:48:16.386Z,67.10
2018-08-21T22:50:44.098Z,85.97
2018-08-21T22:53:11.543Z,70.90
2018-08-21T22:55:39.448Z,78.15
2018-08-21T22:58:07.571Z,83.13
2018-08-21T23:00:35.507Z,66.97
2018-08-21T23:03:03.679Z,71.15
2018-08-21T23:05:31.651Z,80.12
2018-08-21T23:07:59.136Z,66.65
2018-08-21T23:10:27.148Z,64.97
2018-08-21T23:12:54.595Z,67.12
2018-08-21T23:15:22.105Z,70.78
2018-08-21T23:17:50.712Z,78.55
2018-08-21T23:20:19.918Z,63.73
2018-08-21T23:22:47.876Z,79.50
2018-08-21T23:25:15.872Z,77.30
2018-08-21T23:27:43.711Z,71.80
2018-08-21T23:30:11.511Z,73.30
2018-08-21T23:32:39.258Z,71.53
2018-08-21T23:35:07.008Z,77.07
2018-08-21T23:37:35.419Z,78.97
2018-08-21T23:40:03.356Z,79.50
2018-08-21T23:42:31.493Z,74.35
2018-08-21T23:44:59.033Z,79.32
2018-08-21T23:47:27.164Z,54.53
2018-08-21T23:49:55.130Z,75.08
2018-08-21T23:52:22.571Z,74.62
2018-08-21T23:54:50.379Z,67.33
2018-08-21T23:57:18.247Z,75.40
2018-08-21T23:59:46.090Z,57.00
